Cuchillo, New Mexico
Current Conditions -  °F | °C
As of 3:53 AM on Thursday 27 Nov 2014 (Local Time) from KTCS Reporting Station
Clear Clear  
Wind Chill: 35°   Ceiling: Unl
Heat Index: 41°   Visibility: 10mi
Dew Point: 20°   Wind: 9mph
Humidity: 43%   Direction: 320°NW
Pressure: 30.4"   Gusts: NA
Location:  33.1866°N, 106.845°W
Report Text: KTCS 271053Z AUTO 32008KT 10SM CLR 05/M07 A3040 RMK AO2 SLP256 T00501067 TSNO
Loading
Personal Weather Stations






























Interactive Weather Map New forecast layout! Learn more

10-Day Weather Forecast

Advertisements
Track Severe Weather on mobile